sensor_id;sensor_type;location;lat;lon;timestamp;P1;durP1;ratioP1;P2;durP2;ratioP2
37221;SDS011;23119;51.842;-2.230;2023-07-31T00:00:29;1.08;;;0.20;;
37221;SDS011;23119;51.842;-2.230;2023-07-31T00:02:57;2.25;;;0.30;;
37221;SDS011;23119;51.842;-2.230;2023-07-31T00:05:22;3.70;;;0.30;;
37221;SDS011;23119;51.842;-2.230;2023-07-31T00:07:48;0.50;;;0.20;;
37221;SDS011;23119;51.842;-2.230;2023-07-31T00:10:18;2.08;;;0.25;;
37221;SDS011;23119;51.842;-2.230;2023-07-31T00:12:44;2.15;;;0.20;;
37221;SDS011;23119;51.842;-2.230;2023-07-31T00:15:10;0.88;;;0.20;;
37221;SDS011;23119;51.842;-2.230;2023-07-31T00:17:38;1.17;;;0.20;;
37221;SDS011;23119;51.842;-2.230;2023-07-31T00:20:04;2.78;;;0.20;;
37221;SDS011;23119;51.842;-2.230;2023-07-31T00:22:30;0.47;;;0.10;;
37221;SDS011;23119;51.842;-2.230;2023-07-31T00:24:58;0.50;;;0.20;;
37221;SDS011;23119;51.842;-2.230;2023-07-31T00:27:24;1.25;;;0.38;;
37221;SDS011;23119;51.842;-2.230;2023-07-31T00:29:50;0.80;;;0.20;;
37221;SDS011;23119;51.842;-2.230;2023-07-31T00:32:16;1.17;;;0.20;;
37221;SDS011;23119;51.842;-2.230;2023-07-31T00:34:42;1.85;;;0.10;;
37221;SDS011;23119;51.842;-2.230;2023-07-31T00:37:08;0.75;;;0.17;;
37221;SDS011;23119;51.842;-2.230;2023-07-31T00:39:33;3.15;;;0.10;;
37221;SDS011;23119;51.842;-2.230;2023-07-31T00:42:00;0.60;;;0.10;;
37221;SDS011;23119;51.842;-2.230;2023-07-31T00:44:28;1.45;;;0.10;;
37221;SDS011;23119;51.842;-2.230;2023-07-31T00:46:59;0.30;;;0.10;;
37221;SDS011;23119;51.842;-2.230;2023-07-31T00:49:25;0.30;;;0.10;;
37221;SDS011;23119;51.842;-2.230;2023-07-31T00:51:54;0.25;;;0.10;;
37221;SDS011;23119;51.842;-2.230;2023-07-31T00:54:22;1.55;;;0.10;;
37221;SDS011;23119;51.842;-2.230;2023-07-31T00:56:50;2.70;;;0.20;;
37221;SDS011;23119;51.842;-2.230;2023-07-31T00:59:19;0.90;;;0.05;;
37221;SDS011;23119;51.842;-2.230;2023-07-31T01:01:47;1.00;;;0.03;;
37221;SDS011;23119;51.842;-2.230;2023-07-31T01:04:17;0.40;;;0.10;;
37221;SDS011;23119;51.842;-2.230;2023-07-31T01:09:32;0.50;;;0.00;;
37221;SDS011;23119;51.842;-2.230;2023-07-31T01:12:06;0.22;;;0.03;;
37221;SDS011;23119;51.842;-2.230;2023-07-31T01:14:50;0.10;;;0.00;;
37221;SDS011;23119;51.842;-2.230;2023-07-31T01:17:37;0.80;;;0.10;;
37221;SDS011;23119;51.842;-2.230;2023-07-31T01:20:05;0.30;;;0.00;;
37221;SDS011;23119;51.842;-2.230;2023-07-31T01:25:54;0.88;;;0.00;;
37221;SDS011;23119;51.842;-2.230;2023-07-31T01:28:40;0.10;;;0.00;;
37221;SDS011;23119;51.842;-2.230;2023-07-31T01:31:13;0.85;;;0.00;;
37221;SDS011;23119;51.842;-2.230;2023-07-31T01:33:42;2.08;;;0.08;;
37221;SDS011;23119;51.842;-2.230;2023-07-31T01:36:08;0.10;;;0.00;;
37221;SDS011;23119;51.842;-2.230;2023-07-31T01:38:35;1.55;;;0.00;;
37221;SDS011;23119;51.842;-2.230;2023-07-31T01:41:01;0.08;;;0.00;;
37221;SDS011;23119;51.842;-2.230;2023-07-31T01:43:26;1.65;;;0.10;;
37221;SDS011;23119;51.842;-2.230;2023-07-31T01:45:52;0.08;;;0.00;;
37221;SDS011;23119;51.842;-2.230;2023-07-31T01:48:18;0.80;;;0.00;;
37221;SDS011;23119;51.842;-2.230;2023-07-31T01:50:46;1.40;;;0.10;;
37221;SDS011;23119;51.842;-2.230;2023-07-31T01:53:12;0.70;;;0.00;;
37221;SDS011;23119;51.842;-2.230;2023-07-31T01:55:38;0.13;;;0.00;;
37221;SDS011;23119;51.842;-2.230;2023-07-31T01:58:04;0.30;;;0.00;;
37221;SDS011;23119;51.842;-2.230;2023-07-31T02:00:29;0.32;;;0.00;;
37221;SDS011;23119;51.842;-2.230;2023-07-31T02:02:55;0.20;;;0.00;;
37221;SDS011;23119;51.842;-2.230;2023-07-31T02:05:22;0.20;;;0.10;;
37221;SDS011;23119;51.842;-2.230;2023-07-31T02:07:48;0.10;;;0.00;;
37221;SDS011;23119;51.842;-2.230;2023-07-31T02:10:13;1.42;;;0.10;;
37221;SDS011;23119;51.842;-2.230;2023-07-31T02:12:39;0.00;;;0.00;;
37221;SDS011;23119;51.842;-2.230;2023-07-31T02:15:05;0.08;;;0.00;;
37221;SDS011;23119;51.842;-2.230;2023-07-31T02:17:31;0.15;;;0.00;;
37221;SDS011;23119;51.842;-2.230;2023-07-31T02:19:57;0.25;;;0.10;;
37221;SDS011;23119;51.842;-2.230;2023-07-31T02:22:25;0.10;;;0.08;;
37221;SDS011;23119;51.842;-2.230;2023-07-31T02:24:51;5.38;;;0.30;;
37221;SDS011;23119;51.842;-2.230;2023-07-31T02:27:18;1.85;;;0.20;;
37221;SDS011;23119;51.842;-2.230;2023-07-31T02:29:44;4.00;;;1.02;;
37221;SDS011;23119;51.842;-2.230;2023-07-31T02:32:10;0.88;;;0.20;;
37221;SDS011;23119;51.842;-2.230;2023-07-31T02:34:36;1.85;;;0.30;;
37221;SDS011;23119;51.842;-2.230;2023-07-31T02:37:01;4.50;;;0.32;;
37221;SDS011;23119;51.842;-2.230;2023-07-31T02:39:27;5.65;;;0.32;;
37221;SDS011;23119;51.842;-2.230;2023-07-31T02:41:53;1.45;;;0.35;;
37221;SDS011;23119;51.842;-2.230;2023-07-31T02:44:21;2.10;;;0.30;;
37221;SDS011;23119;51.842;-2.230;2023-07-31T02:46:46;4.38;;;0.50;;
37221;SDS011;23119;51.842;-2.230;2023-07-31T02:49:12;1.13;;;0.28;;
37221;SDS011;23119;51.842;-2.230;2023-07-31T02:51:38;5.35;;;0.50;;
37221;SDS011;23119;51.842;-2.230;2023-07-31T02:54:03;2.90;;;0.30;;
37221;SDS011;23119;51.842;-2.230;2023-07-31T02:56:29;1.80;;;0.30;;
37221;SDS011;23119;51.842;-2.230;2023-07-31T02:58:57;3.50;;;0.40;;
37221;SDS011;23119;51.842;-2.230;2023-07-31T03:01:23;3.65;;;0.40;;
37221;SDS011;23119;51.842;-2.230;2023-07-31T03:03:49;5.10;;;0.43;;
37221;SDS011;23119;51.842;-2.230;2023-07-31T03:06:14;3.17;;;0.38;;
37221;SDS011;23119;51.842;-2.230;2023-07-31T03:08:40;4.20;;;0.45;;
37221;SDS011;23119;51.842;-2.230;2023-07-31T03:11:06;9.60;;;0.60;;
37221;SDS011;23119;51.842;-2.230;2023-07-31T03:13:34;4.07;;;0.40;;
37221;SDS011;23119;51.842;-2.230;2023-07-31T03:16:02;7.15;;;0.50;;
37221;SDS011;23119;51.842;-2.230;2023-07-31T03:18:28;2.35;;;0.35;;
37221;SDS011;23119;51.842;-2.230;2023-07-31T03:20:56;4.18;;;0.43;;
37221;SDS011;23119;51.842;-2.230;2023-07-31T03:23:21;6.22;;;0.40;;
37221;SDS011;23119;51.842;-2.230;2023-07-31T03:25:57;7.25;;;0.80;;
37221;SDS011;23119;51.842;-2.230;2023-07-31T03:28:29;8.93;;;0.63;;
37221;SDS011;23119;51.842;-2.230;2023-07-31T03:30:55;3.45;;;0.50;;
37221;SDS011;23119;51.842;-2.230;2023-07-31T03:33:22;3.80;;;0.50;;
37221;SDS011;23119;51.842;-2.230;2023-07-31T03:35:48;7.18;;;0.88;;
37221;SDS011;23119;51.842;-2.230;2023-07-31T03:38:14;3.28;;;0.77;;
37221;SDS011;23119;51.842;-2.230;2023-07-31T03:40:39;8.15;;;1.13;;
37221;SDS011;23119;51.842;-2.230;2023-07-31T03:43:05;8.57;;;1.30;;
37221;SDS011;23119;51.842;-2.230;2023-07-31T03:45:31;7.22;;;1.20;;
37221;SDS011;23119;51.842;-2.230;2023-07-31T03:47:57;7.35;;;1.23;;
37221;SDS011;23119;51.842;-2.230;2023-07-31T03:50:25;6.78;;;2.20;;
37221;SDS011;23119;51.842;-2.230;2023-07-31T03:52:51;4.75;;;0.70;;
37221;SDS011;23119;51.842;-2.230;2023-07-31T03:55:17;4.60;;;1.00;;
37221;SDS011;23119;51.842;-2.230;2023-07-31T03:57:43;5.60;;;1.65;;
37221;SDS011;23119;51.842;-2.230;2023-07-31T04:00:09;2.50;;;0.90;;
37221;SDS011;23119;51.842;-2.230;2023-07-31T04:02:35;5.82;;;0.90;;
37221;SDS011;23119;51.842;-2.230;2023-07-31T04:05:01;4.43;;;1.40;;
37221;SDS011;23119;51.842;-2.230;2023-07-31T04:07:29;4.85;;;1.20;;
37221;SDS011;23119;51.842;-2.230;2023-07-31T04:09:55;7.93;;;1.25;;
37221;SDS011;23119;51.842;-2.230;2023-07-31T04:12:22;3.60;;;1.33;;
37221;SDS011;23119;51.842;-2.230;2023-07-31T04:14:47;5.18;;;1.23;;
37221;SDS011;23119;51.842;-2.230;2023-07-31T04:17:13;7.53;;;1.58;;
37221;SDS011;23119;51.842;-2.230;2023-07-31T04:19:39;6.40;;;1.40;;
37221;SDS011;23119;51.842;-2.230;2023-07-31T04:22:05;5.63;;;1.15;;
37221;SDS011;23119;51.842;-2.230;2023-07-31T04:24:33;6.07;;;1.55;;
37221;SDS011;23119;51.842;-2.230;2023-07-31T04:27:01;6.78;;;1.25;;
37221;SDS011;23119;51.842;-2.230;2023-07-31T04:29:27;5.28;;;2.38;;
37221;SDS011;23119;51.842;-2.230;2023-07-31T04:31:53;7.43;;;1.70;;
37221;SDS011;23119;51.842;-2.230;2023-07-31T04:34:18;5.30;;;2.13;;
37221;SDS011;23119;51.842;-2.230;2023-07-31T04:36:44;8.07;;;1.90;;
37221;SDS011;23119;51.842;-2.230;2023-07-31T04:39:10;3.88;;;1.77;;
37221;SDS011;23119;51.842;-2.230;2023-07-31T04:41:35;3.97;;;1.55;;
37221;SDS011;23119;51.842;-2.230;2023-07-31T04:44:01;4.60;;;1.80;;
37221;SDS011;23119;51.842;-2.230;2023-07-31T04:46:28;3.10;;;1.88;;
37221;SDS011;23119;51.842;-2.230;2023-07-31T04:48:54;3.47;;;1.75;;
37221;SDS011;23119;51.842;-2.230;2023-07-31T04:51:20;6.07;;;1.90;;
37221;SDS011;23119;51.842;-2.230;2023-07-31T04:53:46;4.72;;;1.42;;
37221;SDS011;23119;51.842;-2.230;2023-07-31T04:56:15;5.60;;;2.00;;
37221;SDS011;23119;51.842;-2.230;2023-07-31T04:58:41;4.10;;;1.45;;
37221;SDS011;23119;51.842;-2.230;2023-07-31T05:01:06;5.43;;;1.73;;
37221;SDS011;23119;51.842;-2.230;2023-07-31T05:03:32;4.72;;;1.52;;
37221;SDS011;23119;51.842;-2.230;2023-07-31T05:05:58;4.53;;;1.30;;
37221;SDS011;23119;51.842;-2.230;2023-07-31T05:08:23;7.13;;;1.67;;
37221;SDS011;23119;51.842;-2.230;2023-07-31T05:10:52;5.15;;;1.58;;
37221;SDS011;23119;51.842;-2.230;2023-07-31T05:13:18;5.03;;;1.17;;
37221;SDS011;23119;51.842;-2.230;2023-07-31T05:15:47;4.20;;;1.50;;
37221;SDS011;23119;51.842;-2.230;2023-07-31T05:18:15;4.07;;;1.25;;
37221;SDS011;23119;51.842;-2.230;2023-07-31T05:20:40;5.55;;;1.58;;
37221;SDS011;23119;51.842;-2.230;2023-07-31T05:23:06;5.32;;;1.58;;
37221;SDS011;23119;51.842;-2.230;2023-07-31T05:25:32;6.05;;;2.08;;
37221;SDS011;23119;51.842;-2.230;2023-07-31T05:28:00;5.72;;;2.08;;
37221;SDS011;23119;51.842;-2.230;2023-07-31T05:30:25;6.50;;;2.78;;
37221;SDS011;23119;51.842;-2.230;2023-07-31T05:32:51;6.25;;;2.30;;
37221;SDS011;23119;51.842;-2.230;2023-07-31T05:35:19;5.70;;;2.55;;
37221;SDS011;23119;51.842;-2.230;2023-07-31T05:37:48;8.63;;;3.08;;
37221;SDS011;23119;51.842;-2.230;2023-07-31T05:40:16;7.47;;;2.90;;
37221;SDS011;23119;51.842;-2.230;2023-07-31T05:42:42;5.68;;;2.75;;
37221;SDS011;23119;51.842;-2.230;2023-07-31T05:45:10;11.15;;;3.00;;
37221;SDS011;23119;51.842;-2.230;2023-07-31T05:47:41;7.53;;;2.57;;
37221;SDS011;23119;51.842;-2.230;2023-07-31T05:50:09;8.18;;;3.15;;
37221;SDS011;23119;51.842;-2.230;2023-07-31T05:52:37;9.35;;;2.88;;
37221;SDS011;23119;51.842;-2.230;2023-07-31T05:55:05;7.38;;;3.40;;
37221;SDS011;23119;51.842;-2.230;2023-07-31T05:57:39;12.32;;;2.90;;
37221;SDS011;23119;51.842;-2.230;2023-07-31T06:00:07;7.60;;;2.22;;
37221;SDS011;23119;51.842;-2.230;2023-07-31T06:02:33;10.30;;;2.92;;
37221;SDS011;23119;51.842;-2.230;2023-07-31T06:05:09;10.88;;;2.28;;
37221;SDS011;23119;51.842;-2.230;2023-07-31T06:07:37;9.38;;;2.30;;
37221;SDS011;23119;51.842;-2.230;2023-07-31T06:10:03;5.80;;;1.98;;
37221;SDS011;23119;51.842;-2.230;2023-07-31T06:12:33;8.48;;;2.40;;
37221;SDS011;23119;51.842;-2.230;2023-07-31T06:14:59;13.23;;;2.90;;
37221;SDS011;23119;51.842;-2.230;2023-07-31T06:17:26;9.85;;;2.30;;
37221;SDS011;23119;51.842;-2.230;2023-07-31T06:19:51;10.50;;;2.80;;
37221;SDS011;23119;51.842;-2.230;2023-07-31T06:22:17;10.70;;;3.33;;
37221;SDS011;23119;51.842;-2.230;2023-07-31T06:24:46;11.15;;;2.92;;
37221;SDS011;23119;51.842;-2.230;2023-07-31T06:27:15;9.02;;;2.55;;
37221;SDS011;23119;51.842;-2.230;2023-07-31T06:29:43;11.98;;;2.28;;
37221;SDS011;23119;51.842;-2.230;2023-07-31T06:32:08;8.52;;;2.63;;
37221;SDS011;23119;51.842;-2.230;2023-07-31T06:34:34;9.23;;;2.22;;
37221;SDS011;23119;51.842;-2.230;2023-07-31T06:37:02;11.80;;;3.22;;
37221;SDS011;23119;51.842;-2.230;2023-07-31T06:39:28;10.90;;;2.95;;
37221;SDS011;23119;51.842;-2.230;2023-07-31T06:41:54;13.65;;;2.75;;
37221;SDS011;23119;51.842;-2.230;2023-07-31T06:44:19;11.63;;;2.92;;
37221;SDS011;23119;51.842;-2.230;2023-07-31T06:46:45;11.15;;;2.95;;
37221;SDS011;23119;51.842;-2.230;2023-07-31T06:49:13;10.88;;;2.88;;
37221;SDS011;23119;51.842;-2.230;2023-07-31T06:51:42;13.38;;;2.95;;
37221;SDS011;23119;51.842;-2.230;2023-07-31T06:54:11;8.90;;;2.75;;
37221;SDS011;23119;51.842;-2.230;2023-07-31T06:56:46;13.27;;;2.40;;
37221;SDS011;23119;51.842;-2.230;2023-07-31T06:59:14;9.38;;;2.70;;
37221;SDS011;23119;51.842;-2.230;2023-07-31T07:01:42;9.65;;;2.10;;
37221;SDS011;23119;51.842;-2.230;2023-07-31T07:04:08;10.77;;;2.33;;
37221;SDS011;23119;51.842;-2.230;2023-07-31T07:06:38;9.48;;;2.47;;
37221;SDS011;23119;51.842;-2.230;2023-07-31T07:09:09;12.30;;;2.80;;
37221;SDS011;23119;51.842;-2.230;2023-07-31T07:11:37;6.28;;;1.88;;
37221;SDS011;23119;51.842;-2.230;2023-07-31T07:14:03;12.40;;;2.70;;
37221;SDS011;23119;51.842;-2.230;2023-07-31T07:16:29;7.78;;;2.55;;
37221;SDS011;23119;51.842;-2.230;2023-07-31T07:18:55;7.90;;;2.45;;
37221;SDS011;23119;51.842;-2.230;2023-07-31T07:21:23;8.85;;;2.20;;
37221;SDS011;23119;51.842;-2.230;2023-07-31T07:23:51;5.15;;;1.58;;
37221;SDS011;23119;51.842;-2.230;2023-07-31T07:26:17;7.35;;;2.30;;
37221;SDS011;23119;51.842;-2.230;2023-07-31T07:28:45;7.30;;;2.10;;
37221;SDS011;23119;51.842;-2.230;2023-07-31T07:31:13;6.10;;;2.00;;
37221;SDS011;23119;51.842;-2.230;2023-07-31T07:33:41;5.97;;;1.75;;
37221;SDS011;23119;51.842;-2.230;2023-07-31T07:36:11;6.32;;;1.60;;
37221;SDS011;23119;51.842;-2.230;2023-07-31T07:38:40;7.18;;;1.23;;
37221;SDS011;23119;51.842;-2.230;2023-07-31T07:41:06;5.65;;;1.30;;
37221;SDS011;23119;51.842;-2.230;2023-07-31T07:43:35;3.38;;;1.17;;
37221;SDS011;23119;51.842;-2.230;2023-07-31T07:46:06;9.40;;;1.55;;
37221;SDS011;23119;51.842;-2.230;2023-07-31T07:48:31;8.98;;;1.60;;
37221;SDS011;23119;51.842;-2.230;2023-07-31T07:51:05;8.40;;;1.70;;
37221;SDS011;23119;51.842;-2.230;2023-07-31T07:53:30;11.20;;;1.65;;
37221;SDS011;23119;51.842;-2.230;2023-07-31T07:56:00;9.75;;;1.58;;
37221;SDS011;23119;51.842;-2.230;2023-07-31T07:58:26;11.05;;;1.75;;
37221;SDS011;23119;51.842;-2.230;2023-07-31T08:00:52;11.93;;;2.15;;
37221;SDS011;23119;51.842;-2.230;2023-07-31T08:03:17;13.02;;;1.55;;
37221;SDS011;23119;51.842;-2.230;2023-07-31T08:05:46;7.13;;;1.65;;
37221;SDS011;23119;51.842;-2.230;2023-07-31T08:08:15;8.50;;;1.83;;
37221;SDS011;23119;51.842;-2.230;2023-07-31T08:10:46;9.35;;;1.75;;
37221;SDS011;23119;51.842;-2.230;2023-07-31T08:13:15;8.90;;;1.60;;
37221;SDS011;23119;51.842;-2.230;2023-07-31T08:15:43;5.50;;;1.15;;
37221;SDS011;23119;51.842;-2.230;2023-07-31T08:18:11;5.72;;;1.38;;
37221;SDS011;23119;51.842;-2.230;2023-07-31T08:20:39;6.25;;;1.23;;
37221;SDS011;23119;51.842;-2.230;2023-07-31T08:23:12;9.38;;;1.13;;
37221;SDS011;23119;51.842;-2.230;2023-07-31T08:25:41;11.90;;;2.00;;
37221;SDS011;23119;51.842;-2.230;2023-07-31T08:28:09;7.43;;;1.58;;
37221;SDS011;23119;51.842;-2.230;2023-07-31T08:30:38;6.05;;;1.15;;
37221;SDS011;23119;51.842;-2.230;2023-07-31T08:33:06;9.35;;;1.70;;
37221;SDS011;23119;51.842;-2.230;2023-07-31T08:35:36;9.45;;;1.60;;
37221;SDS011;23119;51.842;-2.230;2023-07-31T08:38:07;5.18;;;1.58;;
37221;SDS011;23119;51.842;-2.230;2023-07-31T08:40:35;8.07;;;1.60;;
37221;SDS011;23119;51.842;-2.230;2023-07-31T08:43:04;7.70;;;1.08;;
37221;SDS011;23119;51.842;-2.230;2023-07-31T08:45:30;6.68;;;1.35;;
37221;SDS011;23119;51.842;-2.230;2023-07-31T08:48:00;8.98;;;1.38;;
37221;SDS011;23119;51.842;-2.230;2023-07-31T08:50:26;7.60;;;1.23;;
37221;SDS011;23119;51.842;-2.230;2023-07-31T08:52:53;10.50;;;1.30;;
37221;SDS011;23119;51.842;-2.230;2023-07-31T08:55:30;8.88;;;1.75;;
37221;SDS011;23119;51.842;-2.230;2023-07-31T08:57:57;8.13;;;1.38;;
37221;SDS011;23119;51.842;-2.230;2023-07-31T09:00:25;8.20;;;1.50;;
37221;SDS011;23119;51.842;-2.230;2023-07-31T09:03:14;7.38;;;1.00;;
37221;SDS011;23119;51.842;-2.230;2023-07-31T09:05:44;8.48;;;1.48;;
37221;SDS011;23119;51.842;-2.230;2023-07-31T09:08:12;5.50;;;1.17;;
37221;SDS011;23119;51.842;-2.230;2023-07-31T09:10:45;7.13;;;1.55;;
37221;SDS011;23119;51.842;-2.230;2023-07-31T09:13:12;7.68;;;1.15;;
37221;SDS011;23119;51.842;-2.230;2023-07-31T09:15:49;7.22;;;1.48;;
37221;SDS011;23119;51.842;-2.230;2023-07-31T09:18:17;12.60;;;1.48;;
37221;SDS011;23119;51.842;-2.230;2023-07-31T09:20:59;7.88;;;1.73;;
37221;SDS011;23119;51.842;-2.230;2023-07-31T09:23:39;6.18;;;1.60;;
37221;SDS011;23119;51.842;-2.230;2023-07-31T09:28:59;7.93;;;2.05;;
37221;SDS011;23119;51.842;-2.230;2023-07-31T09:31:38;9.02;;;1.98;;
37221;SDS011;23119;51.842;-2.230;2023-07-31T09:34:28;8.27;;;1.98;;
37221;SDS011;23119;51.842;-2.230;2023-07-31T09:36:57;11.45;;;2.13;;
37221;SDS011;23119;51.842;-2.230;2023-07-31T09:39:26;10.18;;;2.80;;
37221;SDS011;23119;51.842;-2.230;2023-07-31T09:41:55;10.98;;;2.83;;
37221;SDS011;23119;51.842;-2.230;2023-07-31T09:44:42;7.35;;;3.10;;
37221;SDS011;23119;51.842;-2.230;2023-07-31T09:47:20;8.25;;;3.47;;
37221;SDS011;23119;51.842;-2.230;2023-07-31T09:49:51;14.73;;;3.83;;
37221;SDS011;23119;51.842;-2.230;2023-07-31T09:52:17;8.48;;;3.20;;
37221;SDS011;23119;51.842;-2.230;2023-07-31T09:54:47;12.70;;;3.45;;
37221;SDS011;23119;51.842;-2.230;2023-07-31T09:57:15;8.05;;;2.90;;
37221;SDS011;23119;51.842;-2.230;2023-07-31T09:59:53;8.10;;;3.47;;
37221;SDS011;23119;51.842;-2.230;2023-07-31T10:02:21;8.32;;;2.95;;
37221;SDS011;23119;51.842;-2.230;2023-07-31T10:04:54;11.97;;;3.30;;
37221;SDS011;23119;51.842;-2.230;2023-07-31T10:07:25;9.45;;;3.42;;
37221;SDS011;23119;51.842;-2.230;2023-07-31T10:09:59;7.88;;;3.47;;
37221;SDS011;23119;51.842;-2.230;2023-07-31T10:12:25;6.93;;;3.10;;
37221;SDS011;23119;51.842;-2.230;2023-07-31T10:14:58;13.93;;;3.45;;
37221;SDS011;23119;51.842;-2.230;2023-07-31T10:17:25;10.52;;;4.10;;
37221;SDS011;23119;51.842;-2.230;2023-07-31T10:20:14;9.95;;;3.58;;
37221;SDS011;23119;51.842;-2.230;2023-07-31T10:22:41;13.10;;;4.45;;
37221;SDS011;23119;51.842;-2.230;2023-07-31T10:25:27;8.75;;;3.83;;
37221;SDS011;23119;51.842;-2.230;2023-07-31T10:27:54;9.38;;;3.28;;
37221;SDS011;23119;51.842;-2.230;2023-07-31T10:30:24;11.80;;;4.20;;
37221;SDS011;23119;51.842;-2.230;2023-07-31T10:32:54;10.55;;;3.97;;
37221;SDS011;23119;51.842;-2.230;2023-07-31T10:37:55;9.90;;;3.70;;
37221;SDS011;23119;51.842;-2.230;2023-07-31T10:42:58;11.15;;;3.53;;
37221;SDS011;23119;51.842;-2.230;2023-07-31T10:45:33;10.00;;;3.90;;
37221;SDS011;23119;51.842;-2.230;2023-07-31T10:48:05;9.30;;;3.53;;
37221;SDS011;23119;51.842;-2.230;2023-07-31T10:50:38;10.38;;;3.70;;
37221;SDS011;23119;51.842;-2.230;2023-07-31T10:53:24;14.73;;;4.10;;
37221;SDS011;23119;51.842;-2.230;2023-07-31T10:55:53;8.20;;;3.92;;
37221;SDS011;23119;51.842;-2.230;2023-07-31T10:58:42;10.05;;;3.95;;
37221;SDS011;23119;51.842;-2.230;2023-07-31T11:01:15;7.88;;;3.10;;
37221;SDS011;23119;51.842;-2.230;2023-07-31T11:03:46;10.65;;;3.88;;
37221;SDS011;23119;51.842;-2.230;2023-07-31T11:06:19;13.75;;;4.25;;
37221;SDS011;23119;51.842;-2.230;2023-07-31T11:08:51;11.45;;;4.38;;
37221;SDS011;23119;51.842;-2.230;2023-07-31T11:11:19;11.85;;;3.67;;
37221;SDS011;23119;51.842;-2.230;2023-07-31T11:13:46;10.38;;;3.88;;
37221;SDS011;23119;51.842;-2.230;2023-07-31T11:16:16;14.23;;;4.00;;
37221;SDS011;23119;51.842;-2.230;2023-07-31T11:18:47;10.88;;;3.47;;
37221;SDS011;23119;51.842;-2.230;2023-07-31T11:21:20;9.70;;;3.28;;
37221;SDS011;23119;51.842;-2.230;2023-07-31T11:23:54;11.55;;;3.30;;
37221;SDS011;23119;51.842;-2.230;2023-07-31T11:26:26;11.20;;;3.25;;
37221;SDS011;23119;51.842;-2.230;2023-07-31T11:28:52;9.90;;;2.78;;
37221;SDS011;23119;51.842;-2.230;2023-07-31T11:31:18;14.13;;;3.40;;
37221;SDS011;23119;51.842;-2.230;2023-07-31T11:33:49;12.90;;;2.78;;
37221;SDS011;23119;51.842;-2.230;2023-07-31T11:36:16;11.45;;;2.70;;
37221;SDS011;23119;51.842;-2.230;2023-07-31T11:38:51;11.75;;;2.78;;
37221;SDS011;23119;51.842;-2.230;2023-07-31T11:41:16;15.65;;;3.10;;
37221;SDS011;23119;51.842;-2.230;2023-07-31T11:43:48;8.18;;;2.08;;
37221;SDS011;23119;51.842;-2.230;2023-07-31T11:46:23;10.63;;;2.92;;
37221;SDS011;23119;51.842;-2.230;2023-07-31T11:48:52;11.02;;;2.50;;
37221;SDS011;23119;51.842;-2.230;2023-07-31T11:51:27;11.50;;;2.55;;
37221;SDS011;23119;51.842;-2.230;2023-07-31T11:53:55;10.68;;;2.45;;
37221;SDS011;23119;51.842;-2.230;2023-07-31T11:56:26;12.52;;;2.22;;
37221;SDS011;23119;51.842;-2.230;2023-07-31T11:58:57;10.68;;;2.00;;
37221;SDS011;23119;51.842;-2.230;2023-07-31T12:01:27;17.52;;;3.05;;
37221;SDS011;23119;51.842;-2.230;2023-07-31T12:03:56;9.30;;;3.67;;
37221;SDS011;23119;51.842;-2.230;2023-07-31T12:06:31;12.35;;;2.78;;
37221;SDS011;23119;51.842;-2.230;2023-07-31T12:09:02;12.95;;;2.42;;
37221;SDS011;23119;51.842;-2.230;2023-07-31T12:11:31;12.73;;;3.05;;
37221;SDS011;23119;51.842;-2.230;2023-07-31T12:14:07;13.73;;;3.03;;
37221;SDS011;23119;51.842;-2.230;2023-07-31T12:16:34;15.32;;;2.75;;
37221;SDS011;23119;51.842;-2.230;2023-07-31T12:19:03;10.10;;;2.70;;
37221;SDS011;23119;51.842;-2.230;2023-07-31T12:21:29;14.02;;;3.08;;
37221;SDS011;23119;51.842;-2.230;2023-07-31T12:23:54;11.45;;;2.85;;
37221;SDS011;23119;51.842;-2.230;2023-07-31T12:26:20;12.10;;;2.45;;
37221;SDS011;23119;51.842;-2.230;2023-07-31T12:28:50;16.40;;;2.42;;
37221;SDS011;23119;51.842;-2.230;2023-07-31T12:31:20;10.63;;;2.53;;
37221;SDS011;23119;51.842;-2.230;2023-07-31T12:33:47;13.85;;;2.10;;
37221;SDS011;23119;51.842;-2.230;2023-07-31T12:36:15;13.50;;;2.67;;
37221;SDS011;23119;51.842;-2.230;2023-07-31T12:38:42;13.77;;;2.45;;
37221;SDS011;23119;51.842;-2.230;2023-07-31T12:41:09;11.57;;;2.13;;
37221;SDS011;23119;51.842;-2.230;2023-07-31T12:43:36;15.73;;;2.33;;
37221;SDS011;23119;51.842;-2.230;2023-07-31T12:46:03;10.52;;;3.35;;
37221;SDS011;23119;51.842;-2.230;2023-07-31T12:48:35;12.93;;;2.53;;
37221;SDS011;23119;51.842;-2.230;2023-07-31T12:51:01;20.67;;;3.40;;
37221;SDS011;23119;51.842;-2.230;2023-07-31T12:53:27;12.63;;;2.78;;
37221;SDS011;23119;51.842;-2.230;2023-07-31T12:55:54;16.67;;;2.95;;
37221;SDS011;23119;51.842;-2.230;2023-07-31T12:58:28;11.18;;;2.58;;
37221;SDS011;23119;51.842;-2.230;2023-07-31T13:00:54;19.52;;;3.15;;
37221;SDS011;23119;51.842;-2.230;2023-07-31T13:03:24;14.88;;;3.42;;
37221;SDS011;23119;51.842;-2.230;2023-07-31T13:05:52;13.90;;;2.33;;
37221;SDS011;23119;51.842;-2.230;2023-07-31T13:08:18;17.38;;;2.90;;
37221;SDS011;23119;51.842;-2.230;2023-07-31T13:10:43;14.25;;;3.03;;
37221;SDS011;23119;51.842;-2.230;2023-07-31T13:13:09;15.00;;;2.70;;
37221;SDS011;23119;51.842;-2.230;2023-07-31T13:15:38;12.60;;;2.97;;
37221;SDS011;23119;51.842;-2.230;2023-07-31T13:18:06;16.30;;;3.17;;
37221;SDS011;23119;51.842;-2.230;2023-07-31T13:20:32;12.95;;;2.40;;
37221;SDS011;23119;51.842;-2.230;2023-07-31T13:23:02;21.98;;;3.45;;
37221;SDS011;23119;51.842;-2.230;2023-07-31T13:25:28;21.13;;;3.63;;
37221;SDS011;23119;51.842;-2.230;2023-07-31T13:27:54;14.57;;;3.47;;
37221;SDS011;23119;51.842;-2.230;2023-07-31T13:30:25;16.67;;;3.83;;
37221;SDS011;23119;51.842;-2.230;2023-07-31T13:32:58;16.30;;;3.13;;
37221;SDS011;23119;51.842;-2.230;2023-07-31T13:35:27;21.23;;;3.80;;
37221;SDS011;23119;51.842;-2.230;2023-07-31T13:37:53;17.92;;;3.83;;
37221;SDS011;23119;51.842;-2.230;2023-07-31T13:40:21;12.82;;;2.78;;
37221;SDS011;23119;51.842;-2.230;2023-07-31T13:42:50;17.42;;;3.50;;
37221;SDS011;23119;51.842;-2.230;2023-07-31T13:45:16;18.80;;;3.20;;
37221;SDS011;23119;51.842;-2.230;2023-07-31T13:47:44;9.00;;;2.88;;
37221;SDS011;23119;51.842;-2.230;2023-07-31T13:50:09;15.63;;;3.45;;
37221;SDS011;23119;51.842;-2.230;2023-07-31T13:52:35;12.20;;;2.80;;
37221;SDS011;23119;51.842;-2.230;2023-07-31T13:55:01;11.35;;;2.30;;
37221;SDS011;23119;51.842;-2.230;2023-07-31T13:57:27;13.65;;;2.80;;
37221;SDS011;23119;51.842;-2.230;2023-07-31T13:59:53;13.30;;;2.67;;
37221;SDS011;23119;51.842;-2.230;2023-07-31T14:02:19;21.33;;;3.05;;
37221;SDS011;23119;51.842;-2.230;2023-07-31T14:04:47;18.17;;;3.17;;
37221;SDS011;23119;51.842;-2.230;2023-07-31T14:07:13;13.52;;;2.50;;
37221;SDS011;23119;51.842;-2.230;2023-07-31T14:09:39;17.10;;;3.40;;
37221;SDS011;23119;51.842;-2.230;2023-07-31T14:12:07;8.70;;;2.70;;
37221;SDS011;23119;51.842;-2.230;2023-07-31T14:14:32;14.10;;;2.55;;
37221;SDS011;23119;51.842;-2.230;2023-07-31T14:16:59;11.18;;;2.20;;
37221;SDS011;23119;51.842;-2.230;2023-07-31T14:19:24;11.18;;;3.00;;
37221;SDS011;23119;51.842;-2.230;2023-07-31T14:22:00;12.90;;;3.05;;
37221;SDS011;23119;51.842;-2.230;2023-07-31T14:24:30;13.35;;;2.90;;
37221;SDS011;23119;51.842;-2.230;2023-07-31T14:26:55;11.65;;;2.47;;
37221;SDS011;23119;51.842;-2.230;2023-07-31T14:29:23;14.68;;;2.67;;
37221;SDS011;23119;51.842;-2.230;2023-07-31T14:31:49;9.95;;;2.45;;
37221;SDS011;23119;51.842;-2.230;2023-07-31T14:34:26;12.55;;;2.70;;
37221;SDS011;23119;51.842;-2.230;2023-07-31T14:36:52;13.82;;;3.60;;
37221;SDS011;23119;51.842;-2.230;2023-07-31T14:39:22;12.65;;;3.17;;
37221;SDS011;23119;51.842;-2.230;2023-07-31T14:41:48;8.27;;;2.72;;
37221;SDS011;23119;51.842;-2.230;2023-07-31T14:44:14;13.95;;;2.63;;
37221;SDS011;23119;51.842;-2.230;2023-07-31T14:46:42;9.73;;;3.63;;
37221;SDS011;23119;51.842;-2.230;2023-07-31T14:49:10;12.65;;;2.95;;
37221;SDS011;23119;51.842;-2.230;2023-07-31T14:51:39;15.63;;;3.03;;